ADDS METAR Data INFO
IDs: Format: Raw Decoded Include TAF

Data at: 0933 UTC 25 Jun 2018

KAPF 250853Z AUTO 08006KT 10SM CLR 24/24 A3001 RMK AO2 SLP162 T02440244 56006 $
KAPF 250753Z AUTO 07005KT 10SM CLR 25/25 A3002 RMK AO2 SLP165 T02500250 $
KAPF 250653Z AUTO 10005KT 10SM CLR 25/25 A3002 RMK AO2 SLP164 T02500250 $
KAPF 250553Z AUTO 09004KT 10SM CLR 25/25 A3003 RMK AO2 SLP169 T02500250 10256 20250 58017 $
KAPF 250453Z AUTO 07003KT 10SM CLR 25/25 A3005 RMK AO2 SLP174 T02500250 403330244 $
KAPF 250353Z AUTO 07006KT 10SM CLR 25/25 A3007 RMK AO2 SLP181 T02500250 $
KAPF 250253Z AUTO 05003KT 10SM CLR 26/ A3008 RMK AO2 SLP185 T0256 50019 $
KAPF 250153Z AUTO 06005KT 10SM SCT085 26/ A3009 RMK AO2 SLP187 T0256 $
KAPF 250053Z 08005KT 10SM FEW055 26/ A3006 RMK AO2 SLP176 T0256 $
KAPF 242353Z 00000KT 10SM SCT055 BKN070 BKN100 26/ A3002 RMK AO2 RAE34 SLP166 P0000 6//// T0256 10333 20244 55003 $
KAPF 242253Z 03003KT 10SM -RA FEW110 25/ A3001 RMK AO2 LTG DSNT SW-NW SLP161 P0002 T0250 $
KAPF 242234Z 04003KT 8SM -RA FEW120 25/ A3001 RMK AO2 LTG DSNT S-NW P0002 T0250 $
KAPF 242153Z 00000KT 5SM VCTS RA FEW055 SCT070 OVC095 25/ A3004 RMK AO2 LTG DSNT ALQDS RAB01 TSE40 SLP172 P0049 T0250 $
KAPF 242142Z 12003KT 5SM VCTS -RA SCT034 BKN070 OVC095 25/ A3005 RMK AO2 LTG DSNT ALQDS RAB01 TSE40 P0047 T0250 $
KAPF 242138Z 00000KT 3SM TSRA SCT010 BKN026 OVC041 25/ A3005 RMK AO2 LTG DSNT ALQDS RAB01 P0046 T0250 $
KAPF 242114Z 08005KT 1 3/4SM +TSRA SCT010 BKN026 OVC041 25/ A3005 RMK AO2 LTG DSNT ALQDS RAB01 P0010 T0250 $
KAPF 242053Z 08019G24KT 10SM TS BKN025 BKN050 OVC100 26/ A3003 RMK AO2 LTG DSNT ALQDS RAE36 TSE21B41 SLP169 6//// T0261 53006 $
KAPF 242045Z 09014G18KT 10SM TS FEW020 BKN028 OVC110 27/ A3003 RMK AO2 LTG DSNT ALQDS RAE36 TSE21B41 PRESRR T0267 $
KAPF 242022Z 30005KT 3SM VCTS -RA SCT021 SCT045 OVC110 27/ A3000 RMK AO2 LTG DSNT ALQDS TSE21 T0267 PNO $
KAPF 241953Z 36008KT 4SM TSRA BR BKN028 27/27 A3002 RMK AO2 LTG DSNT ALQDS TSB03 SLP164 VCTS N-NE MOV N P0048 T02670267 $
KAPF 241930Z 03007KT 3SM TSRA BR BKN028 27/27 A3001 RMK AO2 LTG DSNT E AND SE AND NW TSB03 TS N-NE MOV N P0042 T02670267 $
KAPF 241919Z 08006G21KT 1SM TSRA SCT046 27/24 A3002 RMK AO2 LTG DSNT ALQDS TSB03 TS OVD MOV N LTG CG P0020 T02720244 $
KAPF 241909Z 13017KT 4SM -TSRA BR SCT046 28/27 A3001 RMK AO2 LTG DSNT E AND SE AND NW TSB03 TS NE MOV N P0000 T02830267 $
KAPF 241853Z 25010KT 10SM -RA SCT030 32/26 A3000 RMK AO2 LTG DSNT E AND SE AND NW RAB45 SLP157 P0000 T03170256 $
KAPF 241753Z 30009G17KT 270V330 10SM SCT040 33/25 A3001 RMK AO2 SLP162 T03280250 10333 20278 58014 $
KAPF 241653Z 25006KT 10SM SCT043 32/26 A3004 RMK AO2 SLP170 T03220256 $
KAPF 241553Z VRB03KT 10SM BKN034 OVC043 32/25 A3005 RMK AO2 SLP174 T03170250 $
KAPF 241453Z VRB03KT 10SM SCT029 32/25 A3005 RMK AO2 SLP175 T03170250 51009 $
KAPF 241353Z 00000KT 10SM CLR 31/25 A3004 RMK AO2 SLP172 T03060250 $
KAPF 241253Z 05003KT 10SM CLR 29/26 A3004 RMK AO2 SLP172 T02940256 $
KAPF 241153Z 00000KT 10SM CLR 28/26 A3003 RMK AO2 SLP166 70002 T02780261 10278 20250 53011 $
KAPF 241053Z 05003KT 10SM CLR 26/26 A3001 RMK AO2 SLP160 T02560256 $
KAPF 240953Z 00000KT 10SM CLR 26/26 A3000 RMK AO2 LTG DSNT SW AND W SLP157 T02560256 $
KAPF 240853Z AUTO 00000KT 10SM CLR 26/26 A2999 RMK AO2 LTG DSNT W SLP155 T02610256 56009 $
KAPF 240753Z AUTO 00000KT 10SM CLR 26/26 A3000 RMK AO2 SLP157 T02610256 $
KAPF 240653Z AUTO 09004KT 10SM CLR 26/26 A3001 RMK AO2 SLP159 T02610261 $
KAPF 240553Z AUTO 12003KT 10SM CLR 27/27 A3002 RMK AO2 SLP165 T02670267 10283 20261 58003 $
KAPF 240453Z AUTO 00000KT 10SM CLR 27/27 A3003 RMK AO2 SLP168 T02670267 403220261 $
KAPF 240404Z AUTO 11003KT 9SM SCT003 27/27 A3003 RMK AO2 T02670267 $
KAPF 240353Z AUTO 10004KT 9SM BKN004 27/27 A3003 RMK AO2 SLP168 T02720272 $
KAPF 240337Z AUTO 09003KT 10SM SCT004 27/27 A3003 RMK AO2 T02720272 $
KAPF 240253Z AUTO 00000KT 10SM CLR 27/27 A3003 RMK AO2 SLP168 T02720272 51009 $
KAPF 240153Z AUTO 07005KT 10SM CLR 28/28 A3003 RMK AO2 SLP166 T02780278 $
KAPF 240053Z 12003KT 10SM CLR 28/27 A3002 RMK AO2 SLP163 T02780272 $
KAPF 232353Z 00000KT 10SM CLR 28/27 A3000 RMK AO2 SLP159 60002 T02830272 10311 20267 51005 $
KAPF 232253Z 12003KT 10SM CLR 28/28 A3000 RMK AO2 SLP159 T02780278 $
KAPF 232153Z 00000KT 10SM FEW035 27/27 A3000 RMK AO2 RAE24 SLP159 P0000 T02720272 $